Time;durP1;ratioP1;P1;durP2;ratioP2;P2;SDS_P1;SDS_P2;PMS_P1;PMS_P2;Temp;Humidity;BMP_temperature;BMP_pressure;BME280_temperature;BME280_humidity;BME280_pressure;Samples;Min_cycle;Max_cycle;Signal;HPM_P1;HPM_P2
2023/07/28 00:00:10;;;;;;;5.22;3.70;;;;;;;18.55;nan;61371.03;5071768;28;20621;-55
2023/07/28 00:02:35;;;;;;;4.50;3.58;;;;;;;18.59;nan;61519.91;5072782;28;20182;-55
2023/07/28 00:05:01;;;;;;;5.10;3.53;;;;;;;18.73;nan;61421.88;5090952;28;20356;-55
2023/07/28 00:07:26;;;;;;;5.45;3.78;;;;;;;18.67;nan;61433.22;5073229;28;20182;-56
2023/07/28 00:09:52;;;;;;;4.22;3.35;;;;;;;18.36;nan;61606.19;5080050;28;20246;-56
2023/07/28 00:12:17;;;;;;;5.05;3.50;;;;;;;18.59;nan;61401.44;5093292;28;20181;-56
2023/07/28 00:14:42;;;;;;;7.68;3.30;;;;;;;18.54;nan;61395.81;5093438;28;20166;-55
2023/07/28 00:17:08;;;;;;;6.68;3.35;;;;;;;18.67;nan;61534.16;5093215;28;20739;-56
2023/07/28 00:19:33;;;;;;;6.50;3.55;;;;;;;18.78;nan;61425.50;5093027;28;20236;-55
2023/07/28 00:21:58;;;;;;;4.60;3.20;;;;;;;18.49;nan;61390.69;5093075;28;20181;-55
2023/07/28 00:24:24;;;;;;;3.90;3.25;;;;;;;18.60;nan;61436.22;5093030;28;20236;-55
2023/07/28 00:26:49;;;;;;;4.32;3.30;;;;;;;18.44;nan;61500.88;5073410;28;20575;-56
2023/07/28 00:29:15;;;;;;;3.95;3.22;;;;;;;18.36;nan;61365.63;5071007;28;20178;-56
2023/07/28 00:31:40;;;;;;;5.68;3.42;;;;;;;17.41;nan;61396.34;5072043;28;20177;-56
2023/07/28 00:34:06;;;;;;;5.60;3.72;;;;;;;18.69;nan;61485.22;5070966;28;20186;-57
2023/07/28 00:36:32;;;;;;;5.22;3.40;;;;;;;18.58;nan;61540.06;5071972;28;20182;-56
2023/07/28 00:38:57;;;;;;;4.65;3.60;;;;;;;18.76;nan;61557.84;5071158;28;20266;-55
2023/07/28 00:41:23;;;;;;;5.47;3.60;;;;;;;18.54;nan;61414.47;5085178;28;20548;-55
2023/07/28 00:43:48;;;;;;;5.97;3.92;;;;;;;18.79;nan;61431.81;5074029;28;20276;-55
2023/07/28 00:46:14;;;;;;;6.07;3.53;;;;;;;18.65;nan;61469.75;5071847;28;20679;-55
2023/07/28 00:48:40;;;;;;;3.75;3.15;;;;;;;18.75;nan;61424.13;5071874;28;20210;-55
2023/07/28 00:51:07;;;;;;;6.07;3.80;;;;;;;18.20;nan;61595.81;5070451;28;20224;-55
2023/07/28 00:53:32;;;;;;;5.45;3.58;;;;;;;18.42;nan;61527.63;5071672;28;20622;-55
2023/07/28 00:55:58;;;;;;;5.70;3.78;;;;;;;18.16;nan;61451.09;5071905;28;20225;-55
2023/07/28 00:58:23;;;;;;;5.63;3.90;;;;;;;18.24;nan;61101.25;5071292;28;20570;-56
2023/07/28 01:00:49;;;;;;;5.32;3.60;;;;;;;18.23;nan;61358.72;5071113;28;20626;-55
2023/07/28 01:03:16;;;;;;;6.00;3.70;;;;;;;17.98;nan;61441.63;5071016;28;20184;-56
2023/07/28 01:06:02;;;;;;;5.32;3.80;;;;;;;18.24;nan;61418.75;5067205;28;20692;-55
2023/07/28 01:08:38;;;;;;;7.15;3.72;;;;;;;17.99;nan;61308.34;5071493;28;20195;-55
2023/07/28 01:11:04;;;;;;;5.97;3.90;;;;;;;17.76;nan;61308.22;5076729;28;20209;-55
2023/07/28 01:13:29;;;;;;;6.95;4.40;;;;;;;17.80;nan;61617.69;5077342;28;20259;-56
2023/07/28 01:15:54;;;;;;;6.07;4.18;;;;;;;17.72;nan;61376.03;5072381;28;20553;-56
2023/07/28 01:18:20;;;;;;;6.25;3.95;;;;;;;17.78;nan;61311.03;5091706;28;20649;-56
2023/07/28 01:20:47;;;;;;;4.55;3.55;;;;;;;18.06;nan;61355.59;5092236;28;20173;-57
2023/07/28 01:23:27;;;;;;;7.85;4.03;;;;;;;17.88;nan;61337.28;5092353;28;20201;-56
2023/07/28 01:26:03;;;;;;;6.80;4.40;;;;;;;17.91;nan;61314.81;5092647;28;20165;-56
2023/07/28 01:28:29;;;;;;;5.22;3.75;;;;;;;15.37;nan;62821.00;5092560;28;20576;-56
2023/07/28 01:30:54;;;;;;;6.03;4.03;;;;;;;18.03;nan;61387.84;4808267;28;20185;-59
2023/07/28 01:33:20;;;;;;;4.85;3.60;;;;;;;17.55;nan;61376.03;4991200;28;20637;-57
2023/07/28 01:35:45;;;;;;;4.10;3.40;;;;;;;17.73;nan;61294.50;5054188;28;20200;-57
2023/07/28 01:38:12;;;;;;;5.32;3.78;;;;;;;17.51;nan;61306.94;5071712;28;20178;-55
2023/07/28 01:40:38;;;;;;;6.65;3.65;;;;;;;17.69;nan;61481.75;5071686;28;20162;-56
2023/07/28 01:43:03;;;;;;;4.95;3.55;;;;;;;17.55;nan;61324.38;5071857;28;20272;-55
2023/07/28 01:45:29;;;;;;;5.30;3.63;;;;;;;17.68;nan;61312.66;5071609;28;20673;-54
2023/07/28 01:47:54;;;;;;;4.68;3.58;;;;;;;17.87;nan;61316.03;5070197;28;20186;-56
2023/07/28 01:50:19;;;;;;;5.68;3.42;;;;;;;17.81;nan;61278.25;5084112;28;20230;-56
2023/07/28 01:52:45;;;;;;;3.80;3.20;;;;;;;18.14;nan;61358.88;5077382;28;20654;-56
2023/07/28 01:55:10;;;;;;;5.05;3.63;;;;;;;18.25;nan;61345.47;5071971;28;20166;-55
2023/07/28 01:57:39;;;;;;;8.10;3.50;;;;;;;18.10;nan;61372.47;5090827;28;20692;-55
2023/07/28 02:00:05;;;;;;;4.45;3.22;;;;;;;18.31;nan;61365.16;5091594;28;20177;-56
2023/07/28 02:02:31;;;;;;;5.72;3.33;;;;;;;18.06;nan;61352.44;5091380;28;20180;-55
2023/07/28 02:04:56;;;;;;;4.35;3.38;;;;;;;18.01;nan;61461.09;5091356;28;20239;-55
2023/07/28 02:07:21;;;;;;;4.78;3.50;;;;;;;17.97;nan;61381.06;5091849;28;20170;-55
2023/07/28 02:09:47;;;;;;;5.10;3.50;;;;;;;17.90;nan;61484.84;5092046;28;20624;-55
2023/07/28 02:12:12;;;;;;;4.63;3.28;;;;;;;17.62;nan;61649.50;5091691;28;20209;-55
2023/07/28 02:14:37;;;;;;;4.63;3.35;;;;;;;17.26;nan;61283.84;5091327;28;20201;-55
2023/07/28 02:17:03;;;;;;;4.63;3.42;;;;;;;17.20;nan;61222.88;5091725;28;20173;-56
2023/07/28 02:19:28;;;;;;;4.10;3.30;;;;;;;17.23;nan;61270.72;5091627;28;20169;-54
2023/07/28 02:21:54;;;;;;;4.38;3.70;;;;;;;17.40;nan;61283.59;5094329;28;20169;-55
2023/07/28 02:24:19;;;;;;;5.03;3.65;;;;;;;16.98;nan;61365.78;5095494;28;20247;-56
2023/07/28 02:26:44;;;;;;;5.32;3.88;;;;;;;16.94;nan;61253.47;5095525;28;20178;-55
2023/07/28 02:29:10;;;;;;;4.13;3.40;;;;;;;16.90;nan;61238.06;5095385;28;20165;-55
2023/07/28 02:31:35;;;;;;;6.00;3.67;;;;;;;16.61;nan;61174.94;5094958;28;20689;-54
2023/07/28 02:34:00;;;;;;;5.68;3.80;;;;;;;16.45;nan;61141.97;5095176;28;20162;-55
2023/07/28 02:36:26;;;;;;;4.50;3.42;;;;;;;16.39;nan;61197.09;5095637;28;20210;-55
2023/07/28 02:38:51;;;;;;;4.72;3.70;;;;;;;16.54;nan;61182.50;5095087;28;20204;-54
2023/07/28 02:41:17;;;;;;;4.72;3.53;;;;;;;16.81;nan;61236.22;5094959;28;20527;-55
2023/07/28 02:43:42;;;;;;;4.65;3.70;;;;;;;16.88;nan;61519.66;5094923;28;20173;-54
2023/07/28 02:46:07;;;;;;;4.35;3.47;;;;;;;16.91;nan;61241.78;5094534;28;20222;-55
2023/07/28 02:48:33;;;;;;;4.35;3.63;;;;;;;16.53;nan;61295.41;5094901;28;20231;-55
2023/07/28 02:50:58;;;;;;;4.05;3.10;;;;;;;16.81;nan;61207.25;5094917;28;20165;-54
2023/07/28 02:53:24;;;;;;;5.32;3.55;;;;;;;16.68;nan;61164.78;5094538;28;20180;-55
2023/07/28 02:55:49;;;;;;;4.63;3.67;;;;;;;16.69;nan;61230.97;5095078;28;20175;-55
2023/07/28 02:58:15;;;;;;;8.05;4.35;;;;;;;16.66;nan;61332.75;5090429;28;20201;-57
2023/07/28 03:00:41;;;;;;;5.38;3.65;;;;;;;16.24;nan;61254.91;5080276;28;20200;-55
2023/07/28 03:03:10;;;;;;;5.28;3.92;;;;;;;16.50;nan;61167.69;5073474;28;20190;-54
2023/07/28 03:05:36;;;;;;;6.20;4.45;;;;;;;16.43;nan;61201.59;5073934;28;20237;-56
2023/07/28 03:08:02;;;;;;;4.68;3.72;;;;;;;16.21;nan;61117.50;5074421;28;20201;-55
2023/07/28 03:10:28;;;;;;;4.63;4.03;;;;;;;16.24;nan;61138.94;5079551;28;20217;-57
2023/07/28 03:12:54;;;;;;;6.28;4.07;;;;;;;16.60;nan;61213.06;5072816;28;20267;-55
2023/07/28 03:15:21;;;;;;;4.72;3.67;;;;;;;16.65;nan;61421.91;5085143;28;20192;-55
2023/07/28 03:17:48;;;;;;;7.18;4.25;;;;;;;16.85;nan;61284.00;5080136;28;20246;-55
2023/07/28 03:20:13;;;;;;;8.30;4.25;;;;;;;16.99;nan;61408.78;5079619;28;20254;-56
2023/07/28 03:22:39;;;;;;;4.72;3.60;;;;;;;17.72;nan;61474.78;5078698;28;20239;-56
2023/07/28 03:25:04;;;;;;;9.35;4.07;;;;;;;18.38;nan;61523.13;5107226;28;20270;-55
2023/07/28 03:27:30;;;;;;;4.70;3.53;;;;;;;19.25;nan;61531.94;5074180;28;20546;-54
2023/07/28 03:29:55;;;;;;;4.70;3.53;;;;;;;20.06;nan;61622.56;5072923;28;20170;-55
2023/07/28 03:32:20;;;;;;;6.20;3.40;;;;;;;20.35;nan;61569.81;5075083;28;20177;-55
2023/07/28 03:34:46;;;;;;;4.93;3.40;;;;;;;21.02;nan;61797.84;5080325;28;20232;-56
2023/07/28 03:37:11;;;;;;;4.30;3.30;;;;;;;21.74;nan;61886.88;5073504;28;20257;-55
2023/07/28 03:39:36;;;;;;;3.47;3.15;;;;;;;22.46;nan;61824.41;5092448;28;20207;-55
2023/07/28 03:42:02;;;;;;;4.72;3.53;;;;;;;22.96;nan;61997.31;5082953;28;20738;-55
2023/07/28 03:44:28;;;;;;;3.97;3.08;;;;;;;22.65;nan;61887.06;5072810;28;20640;-55
2023/07/28 03:46:53;;;;;;;4.47;3.45;;;;;;;23.44;nan;62022.69;5088914;28;20212;-56
2023/07/28 03:49:19;;;;;;;3.28;2.80;;;;;;;24.01;nan;62011.84;5071953;28;20192;-56
2023/07/28 03:51:44;;;;;;;4.88;3.33;;;;;;;25.10;nan;62215.28;5079549;28;20184;-56
2023/07/28 03:54:09;;;;;;;4.90;3.67;;;;;;;25.97;nan;62509.81;5084528;28;20213;-56
2023/07/28 03:56:35;;;;;;;3.22;2.90;;;;;;;26.37;nan;62421.94;5073098;28;20636;-56
2023/07/28 03:59:00;;;;;;;4.50;3.53;;;;;;;26.57;nan;62362.94;5072605;28;20205;-58
2023/07/28 04:01:25;;;;;;;6.82;3.67;;;;;;;26.71;nan;62380.97;5085368;28;21053;-55
2023/07/28 04:03:51;;;;;;;5.68;3.72;;;;;;;27.07;nan;62401.09;5071993;28;20213;-56
2023/07/28 04:06:16;;;;;;;6.28;3.92;;;;;;;27.34;nan;62611.88;5071741;28;20751;-56
2023/07/28 04:08:42;;;;;;;6.38;3.92;;;;;;;28.03;nan;62530.63;5092080;28;20185;-56
2023/07/28 04:11:07;;;;;;;4.57;3.30;;;;;;;28.82;nan;62700.88;5093437;28;20173;-56
2023/07/28 04:13:36;;;;;;;5.18;3.50;;;;;;;29.16;nan;62745.09;5093127;28;20633;-57
2023/07/28 04:16:01;;;;;;;5.75;3.50;;;;;;;29.43;nan;62904.53;5092044;28;20173;-57
2023/07/28 04:18:27;;;;;;;5.68;3.20;;;;;;;29.90;nan;62862.50;5075213;28;20180;-56
2023/07/28 04:20:53;;;;;;;6.80;3.65;;;;;;;29.92;nan;62883.25;5087060;28;20185;-57
2023/07/28 04:23:18;;;;;;;6.43;3.53;;;;;;;30.47;nan;62978.06;5073000;28;20174;-57
2023/07/28 04:25:44;;;;;;;5.00;3.28;;;;;;;30.77;nan;62702.53;5083755;28;20578;-56
2023/07/28 04:28:09;;;;;;;5.90;3.70;;;;;;;30.90;nan;63077.03;5093156;28;20298;-56
2023/07/28 04:30:35;;;;;;;5.93;3.72;;;;;;;31.18;nan;63077.00;5092854;28;20177;-56
2023/07/28 04:33:00;;;;;;;6.00;3.80;;;;;;;30.92;nan;63155.91;5092754;28;20169;-56
2023/07/28 04:35:26;;;;;;;5.57;3.55;;;;;;;30.66;nan;63033.59;5088342;28;20182;-56
2023/07/28 04:37:51;;;;;;;5.10;3.63;;;;;;;30.21;nan;62998.28;5071981;28;20681;-55
2023/07/28 04:40:17;;;;;;;4.30;3.13;;;;;;;29.72;nan;62848.25;5071469;28;20186;-56
2023/07/28 04:42:42;;;;;;;4.75;3.50;;;;;;;29.53;nan;62829.09;5079006;28;20204;-56
2023/07/28 04:45:08;;;;;;;3.92;3.30;;;;;;;28.66;nan;62683.09;5070308;28;20583;-56
2023/07/28 04:47:34;;;;;;;4.43;3.05;;;;;;;28.68;nan;62697.97;5084918;28;20188;-56
2023/07/28 04:49:59;;;;;;;5.05;3.50;;;;;;;27.68;nan;62530.03;5076656;28;20170;-56
2023/07/28 04:52:24;;;;;;;6.68;4.50;;;;;;;27.74;nan;62578.34;5070629;28;20213;-56
2023/07/28 04:54:50;;;;;;;7.35;3.83;;;;;;;27.46;nan;62544.25;5071676;28;20178;-57
2023/07/28 04:57:17;;;;;;;4.18;3.47;;;;;;;27.08;nan;62706.03;5071803;28;20170;-56
2023/07/28 04:59:43;;;;;;;4.20;3.40;;;;;;;26.62;nan;62404.78;5071099;28;20177;-56
2023/07/28 05:02:08;;;;;;;4.05;3.22;;;;;;;26.35;nan;62356.75;5071347;28;20270;-56
2023/07/28 05:04:35;;;;;;;6.57;4.13;;;;;;;26.47;nan;62448.50;5071251;28;20201;-55
2023/07/28 05:07:01;;;;;;;7.10;3.92;;;;;;;26.63;nan;62417.00;5071910;28;20167;-57
2023/07/28 05:09:28;;;;;;;4.22;3.33;;;;;;;26.57;nan;62591.03;5071535;28;20613;-56
2023/07/28 05:11:53;;;;;;;4.65;3.65;;;;;;;26.50;nan;62388.44;5068687;28;20269;-57
2023/07/28 05:14:19;;;;;;;5.47;3.60;;;;;;;26.56;nan;62422.09;5082549;28;20530;-57
2023/07/28 05:16:44;;;;;;;4.28;2.88;;;;;;;26.72;nan;62403.09;5077456;28;20178;-57
2023/07/28 05:19:09;;;;;;;5.97;2.97;;;;;;;26.90;nan;62501.78;5071765;28;20165;-57
2023/07/28 05:21:35;;;;;;;3.30;2.90;;;;;;;25.99;nan;62315.63;5089056;28;20181;-57
2023/07/28 05:24:00;;;;;;;4.68;3.13;;;;;;;25.98;nan;62355.84;5091774;28;20564;-57
2023/07/28 05:26:26;;;;;;;3.80;3.00;;;;;;;25.46;nan;62339.50;5091394;28;20174;-56
2023/07/28 05:28:51;;;;;;;4.05;3.35;;;;;;;25.07;nan;62295.53;5081725;28;20182;-56
2023/07/28 05:31:16;;;;;;;4.45;3.33;;;;;;;24.27;nan;62048.72;5061758;28;20194;-56
2023/07/28 05:33:42;;;;;;;5.53;4.00;;;;;;;23.99;nan;62025.25;5082907;28;20302;-56
2023/07/28 05:36:07;;;;;;;4.03;3.28;;;;;;;23.19;nan;61919.19;5076704;28;20193;-56
2023/07/28 05:38:33;;;;;;;3.88;3.03;;;;;;;23.24;nan;61995.28;5083496;28;20225;-56
2023/07/28 05:41:03;;;;;;;4.43;3.20;;;;;;;22.99;nan;61980.44;5077060;28;20251;-55
2023/07/28 05:43:31;;;;;;;4.13;3.15;;;;;;;22.92;nan;61904.16;5070761;28;20965;-56
2023/07/28 05:45:59;;;;;;;5.72;4.07;;;;;;;23.10;nan;62039.31;5051173;28;20198;-56
2023/07/28 05:48:24;;;;;;;4.90;3.10;;;;;;;22.68;nan;61999.88;5051330;28;20223;-57
2023/07/28 05:50:52;;;;;;;3.97;3.10;;;;;;;22.89;nan;61914.91;5050650;28;20531;-56
2023/07/28 05:53:17;;;;;;;3.90;3.03;;;;;;;22.79;nan;61887.38;5050826;28;20224;-56
2023/07/28 05:55:43;;;;;;;3.80;3.00;;;;;;;22.87;nan;61857.94;5050684;28;20249;-56
2023/07/28 05:58:08;;;;;;;3.78;3.00;;;;;;;22.64;nan;62050.03;5054404;28;20171;-56
2023/07/28 06:00:33;;;;;;;6.15;3.42;;;;;;;22.82;nan;61901.19;5054162;28;20174;-56
2023/07/28 06:02:59;;;;;;;3.90;3.10;;;;;;;22.98;nan;62046.50;5069653;28;20198;-57
2023/07/28 06:05:24;;;;;;;7.50;3.10;;;;;;;23.12;nan;61922.22;5080155;28;20842;-57
2023/07/28 06:07:50;;;;;;;4.57;3.25;;;;;;;23.29;nan;62068.75;5088050;28;20178;-56
2023/07/28 06:10:15;;;;;;;5.40;3.55;;;;;;;23.30;nan;61994.28;5077210;28;20200;-56
2023/07/28 06:12:40;;;;;;;4.50;3.50;;;;;;;23.41;nan;61978.09;5074623;28;20204;-56
2023/07/28 06:15:07;;;;;;;5.78;4.05;;;;;;;23.37;nan;62017.31;5094409;28;20161;-56
2023/07/28 06:17:32;;;;;;;3.58;3.05;;;;;;;;;;5094152;28;20200;-57
2023/07/28 06:19:58;;;;;;;4.95;3.25;;;;;;;23.78;nan;62048.91;5075929;28;20630;-59
2023/07/28 06:22:24;;;;;;;3.55;2.90;;;;;;;21.45;nan;61804.53;5094412;28;20199;-57
2023/07/28 06:24:50;;;;;;;3.95;3.25;;;;;;;24.13;nan;62314.78;5093649;28;20197;-57
2023/07/28 06:27:15;;;;;;;3.47;2.75;;;;;;;24.02;nan;62020.25;5093957;28;20267;-57
2023/07/28 06:29:40;;;;;;;4.43;2.88;;;;;;;24.23;nan;62085.38;5093733;28;20162;-56
2023/07/28 06:32:06;;;;;;;3.75;2.83;;;;;;;24.22;nan;62081.63;5093969;28;20585;-56
2023/07/28 06:34:32;;;;;;;4.15;3.08;;;;;;;23.94;nan;62086.84;5094140;28;20177;-57
2023/07/28 06:36:58;;;;;;;3.35;3.00;;;;;;;23.74;nan;62271.38;5093569;28;20279;-57
2023/07/28 06:39:24;;;;;;;4.13;2.70;;;;;;;23.64;nan;62270.41;5093656;28;20166;-56
2023/07/28 06:41:50;;;;;;;3.72;3.00;;;;;;;24.10;nan;62061.25;5093354;28;20617;-56
2023/07/28 06:44:16;;;;;;;3.72;2.60;;;;;;;23.92;nan;62100.22;5093289;28;20193;-56
2023/07/28 06:46:41;;;;;;;3.15;2.72;;;;;;;24.11;nan;62054.56;5093659;28;20185;-57
2023/07/28 06:49:07;;;;;;;4.03;2.50;;;;;;;23.86;nan;62289.19;5093530;28;20169;-57
2023/07/28 06:51:32;;;;;;;4.88;2.63;;;;;;;24.20;nan;62098.19;5093373;28;20613;-56
2023/07/28 06:53:57;;;;;;;2.58;2.20;;;;;;;24.18;nan;62234.34;5093663;28;20252;-56
2023/07/28 06:56:23;;;;;;;3.03;2.60;;;;;;;24.32;nan;62226.22;5093123;28;20197;-56
2023/07/28 06:58:48;;;;;;;4.03;2.60;;;;;;;24.29;nan;62087.53;5093221;28;20162;-56
2023/07/28 07:01:13;;;;;;;4.03;2.60;;;;;;;24.30;nan;62116.84;5075229;28;20277;-57
2023/07/28 07:03:39;;;;;;;2.72;2.45;;;;;;;24.42;nan;62238.19;5093296;28;20173;-56
2023/07/28 07:06:04;;;;;;;2.90;2.08;;;;;;;24.33;nan;62293.22;5093037;28;20213;-56
2023/07/28 07:08:30;;;;;;;2.55;2.35;;;;;;;24.31;nan;62351.03;5083129;28;20228;-56
2023/07/28 07:10:56;;;;;;;2.70;2.20;;;;;;;24.38;nan;62223.19;5073766;28;20178;-56
2023/07/28 07:13:21;;;;;;;3.15;2.47;;;;;;;24.76;nan;62257.53;5073843;28;20590;-58
2023/07/28 07:15:47;;;;;;;2.80;2.40;;;;;;;24.55;nan;62121.81;5073772;28;20170;-57
2023/07/28 07:18:12;;;;;;;7.50;2.60;;;;;;;24.47;nan;62214.59;5073520;28;20240;-57
2023/07/28 07:20:38;;;;;;;3.33;2.75;;;;;;;24.31;nan;62082.00;5073707;28;20185;-57
2023/07/28 07:23:06;;;;;;;2.65;2.13;;;;;;;24.65;nan;62274.88;5073430;28;20268;-56
2023/07/28 07:25:32;;;;;;;3.38;2.70;;;;;;;24.88;nan;62211.69;5072545;28;20225;-56
2023/07/28 07:27:58;;;;;;;2.88;2.28;;;;;;;24.73;nan;62110.38;5073251;28;20202;-56
2023/07/28 07:30:23;;;;;;;3.55;2.47;;;;;;;24.86;nan;62376.16;5073183;28;20190;-56
2023/07/28 07:32:49;;;;;;;4.20;2.65;;;;;;;24.82;nan;62204.84;5073609;28;20525;-57
2023/07/28 07:35:15;;;;;;;2.38;2.08;;;;;;;24.89;nan;62146.91;5074099;28;20169;-56
2023/07/28 07:37:40;;;;;;;2.70;2.33;;;;;;;24.86;nan;62162.34;5055427;28;20178;-57
2023/07/28 07:40:07;;;;;;;2.50;2.30;;;;;;;25.13;nan;62265.78;5073232;28;20261;-55
2023/07/28 07:42:45;;;;;;;3.08;2.25;;;;;;;25.09;nan;62190.59;5073606;28;20257;-57
2023/07/28 07:45:11;;;;;;;3.13;2.40;;;;;;;24.89;nan;62215.44;5073358;28;20190;-58
2023/07/28 07:47:37;;;;;;;3.33;2.40;;;;;;;24.70;nan;62143.53;5073172;28;20178;-56
2023/07/28 07:50:03;;;;;;;2.03;1.83;;;;;;;25.04;nan;62222.09;5073364;28;20170;-56
2023/07/28 07:52:28;;;;;;;2.83;2.08;;;;;;;25.03;nan;62322.34;5072951;28;20189;-57
2023/07/28 07:54:53;;;;;;;2.72;2.30;;;;;;;25.21;nan;62397.84;5073485;28;20557;-56
2023/07/28 07:57:19;;;;;;;3.13;2.38;;;;;;;25.29;nan;62503.81;5073271;28;20189;-56
2023/07/28 07:59:44;;;;;;;2.80;2.20;;;;;;;25.31;nan;62204.63;5073074;28;20237;-56
2023/07/28 08:02:10;;;;;;;2.70;2.30;;;;;;;25.08;nan;62194.69;5072736;28;20162;-56
2023/07/28 08:04:36;;;;;;;2.17;1.98;;;;;;;24.13;nan;62103.28;5072861;28;20683;-57
2023/07/28 08:07:04;;;;;;;2.30;1.90;;;;;;;24.57;nan;62171.69;5072831;28;20167;-56
2023/07/28 08:09:29;;;;;;;2.20;1.98;;;;;;;24.82;nan;62272.81;5072754;28;20158;-59
2023/07/28 08:11:55;;;;;;;2.97;2.50;;;;;;;24.75;nan;62170.13;5073127;28;20189;-57
2023/07/28 08:14:20;;;;;;;2.78;2.33;;;;;;;25.28;nan;62259.34;5072847;28;20602;-57
2023/07/28 08:16:46;;;;;;;2.60;2.20;;;;;;;25.57;nan;62263.09;5072955;28;20174;-57
2023/07/28 08:19:11;;;;;;;2.05;1.85;;;;;;;25.60;nan;62299.97;5071939;28;20208;-56
2023/07/28 08:21:36;;;;;;;3.00;2.10;;;;;;;25.55;nan;62278.53;5072347;28;20163;-55
2023/07/28 08:24:03;;;;;;;2.55;1.98;;;;;;;25.28;nan;62340.44;5072492;28;20202;-58
2023/07/28 08:26:29;;;;;;;4.60;2.35;;;;;;;25.83;nan;62248.22;5073605;28;20642;-58
2023/07/28 08:28:55;;;;;;;2.75;2.00;;;;;;;25.76;nan;62375.81;5088192;28;20174;-55
2023/07/28 08:31:20;;;;;;;2.45;2.03;;;;;;;25.99;nan;62362.78;5072010;28;20249;-56
2023/07/28 08:33:46;;;;;;;4.20;2.22;;;;;;;26.15;nan;62346.44;5081184;28;20196;-57
2023/07/28 08:36:12;;;;;;;3.20;2.38;;;;;;;26.26;nan;62367.44;5092108;28;20613;-56
2023/07/28 08:38:38;;;;;;;2.63;1.92;;;;;;;26.22;nan;62451.94;5092541;28;20165;-56
2023/07/28 08:41:05;;;;;;;3.33;2.35;;;;;;;26.11;nan;62392.22;5092154;28;20181;-56
2023/07/28 08:43:31;;;;;;;4.53;2.30;;;;;;;26.22;nan;62624.34;5092135;28;20542;-56
2023/07/28 08:45:57;;;;;;;4.78;2.40;;;;;;;26.38;nan;62621.69;5091949;28;20573;-56
2023/07/28 08:48:23;;;;;;;2.40;2.05;;;;;;;26.36;nan;62386.72;5091887;28;20256;-56
2023/07/28 08:50:49;;;;;;;2.20;2.00;;;;;;;26.28;nan;62363.91;5091511;28;20567;-57
2023/07/28 08:53:15;;;;;;;2.97;1.90;;;;;;;26.34;nan;62378.63;5092095;28;20176;-57
2023/07/28 08:55:41;;;;;;;2.42;1.90;;;;;;;26.45;nan;62427.88;5092328;28;20165;-57
2023/07/28 08:58:20;;;;;;;2.47;2.08;;;;;;;26.45;nan;62393.78;5092132;28;20162;-56
2023/07/28 09:00:49;;;;;;;2.70;1.90;;;;;;;26.87;nan;62566.56;5092077;28;20176;-57
2023/07/28 09:03:16;;;;;;;2.63;1.73;;;;;;;26.52;nan;62385.50;5091992;28;20656;-56
2023/07/28 09:05:42;;;;;;;2.90;1.77;;;;;;;26.38;nan;62381.13;5091786;28;20229;-56
2023/07/28 09:08:09;;;;;;;3.80;2.10;;;;;;;26.56;nan;62516.47;5091665;28;20713;-57
2023/07/28 09:10:44;;;;;;;2.22;1.70;;;;;;;26.81;nan;62547.13;5079801;28;20178;-57
2023/07/28 09:13:13;;;;;;;2.22;1.70;;;;;;;26.66;nan;62377.88;5070612;28;20189;-56
2023/07/28 09:15:39;;;;;;;1.92;1.73;;;;;;;26.92;nan;62515.13;5089447;28;20188;-57
2023/07/28 09:18:12;;;;;;;2.88;2.13;;;;;;;27.16;nan;62484.84;5071501;28;20174;-56
2023/07/28 09:20:43;;;;;;;2.65;2.00;;;;;;;27.19;nan;62577.50;5078590;28;20177;-57
2023/07/28 09:23:10;;;;;;;3.42;2.05;;;;;;;27.39;nan;62509.97;5091965;28;20165;-59
2023/07/28 09:25:37;;;;;;;2.67;2.10;;;;;;;26.99;nan;62367.78;5091596;28;20698;-55
2023/07/28 09:28:03;;;;;;;2.83;2.15;;;;;;;26.62;nan;62381.75;5091834;28;20184;-57
2023/07/28 09:30:45;;;;;;;2.03;1.83;;;;;;;26.90;nan;62711.63;5091177;28;20174;-56
2023/07/28 09:33:10;;;;;;;2.80;2.05;;;;;;;26.96;nan;62380.66;5091213;28;20165;-57
2023/07/28 09:35:47;;;;;;;2.28;1.83;;;;;;;27.04;nan;62567.63;5091602;28;20693;-56
2023/07/28 09:38:14;;;;;;;2.00;1.77;;;;;;;27.30;nan;62554.81;5073238;28;20165;-58
2023/07/28 09:40:40;;;;;;;2.65;2.30;;;;;;;27.57;nan;62646.69;5091455;28;20244;-56
2023/07/28 09:43:06;;;;;;;3.20;2.17;;;;;;;27.56;nan;62555.72;5091239;28;20277;-55
2023/07/28 09:45:33;;;;;;;2.03;1.80;;;;;;;26.68;nan;62437.84;5091608;28;20711;-55
2023/07/28 09:48:02;;;;;;;2.80;2.05;;;;;;;26.49;nan;62395.75;5091864;28;20208;-56
2023/07/28 09:50:31;;;;;;;1.92;1.73;;;;;;;26.76;nan;62439.13;5091578;28;20671;-57
2023/07/28 09:53:01;;;;;;;2.42;1.90;;;;;;;27.02;nan;62489.84;5091248;28;20564;-58
2023/07/28 09:55:26;;;;;;;2.58;1.90;;;;;;;26.66;nan;62642.72;5091170;28;20704;-57
2023/07/28 09:57:54;;;;;;;2.30;1.83;;;;;;;26.32;nan;62470.66;5079197;28;20178;-58
2023/07/28 10:00:22;;;;;;;2.58;2.20;;;;;;;26.96;nan;62482.97;5085686;28;20256;-57
2023/07/28 10:02:48;;;;;;;2.50;1.90;;;;;;;27.16;nan;62468.53;5073995;28;20178;-56
2023/07/28 10:05:15;;;;;;;2.42;1.85;;;;;;;27.31;nan;62516.59;5072650;28;20308;-57
2023/07/28 10:07:42;;;;;;;3.30;1.95;;;;;;;27.36;nan;62520.25;5090697;28;20173;-57
2023/07/28 10:10:10;;;;;;;2.97;2.10;;;;;;;27.18;nan;62615.72;5090966;28;20184;-57
2023/07/28 10:12:46;;;;;;;2.35;1.80;;;;;;;27.39;nan;62547.31;5091564;28;20713;-57
2023/07/28 10:15:17;;;;;;;2.50;1.90;;;;;;;27.35;nan;62492.28;5091485;28;20540;-56
2023/07/28 10:17:45;;;;;;;2.22;1.73;;;;;;;27.35;nan;62534.88;5091426;28;20241;-57
2023/07/28 10:20:38;;;;;;;2.60;1.83;;;;;;;27.64;nan;62620.00;5090988;28;20500;-57
2023/07/28 10:23:22;;;;;;;2.22;1.85;;;;;;;27.87;nan;62682.56;5090544;28;20173;-56
2023/07/28 10:25:56;;;;;;;3.22;2.08;;;;;;;27.86;nan;62581.56;5091235;28;20201;-56
2023/07/28 10:28:42;;;;;;;3.97;1.83;;;;;;;27.98;nan;62624.19;5091192;28;20238;-56
2023/07/28 10:31:12;;;;;;;2.13;1.70;;;;;;;27.64;nan;62659.97;5090885;28;20606;-57
2023/07/28 10:33:44;;;;;;;3.17;2.05;;;;;;;27.78;nan;62606.56;5091056;28;20533;-57
2023/07/28 10:36:21;;;;;;;2.67;1.58;;;;;;;27.84;nan;62648.16;5091354;28;20211;-57
2023/07/28 10:38:59;;;;;;;2.70;2.20;;;;;;;28.10;nan;62654.31;5091153;28;20248;-56
2023/07/28 10:41:25;;;;;;;2.40;1.80;;;;;;;28.33;nan;62697.91;5091043;28;20192;-56
2023/07/28 10:43:51;;;;;;;2.50;1.80;;;;;;;28.29;nan;62738.03;5094917;28;20170;-56
2023/07/28 10:46:20;;;;;;;2.70;1.92;;;;;;;27.94;nan;62591.28;5094607;28;20260;-56
2023/07/28 10:48:47;;;;;;;2.42;1.80;;;;;;;28.00;nan;62648.09;5094668;28;20173;-57
2023/07/28 10:51:31;;;;;;;2.63;1.90;;;;;;;27.78;nan;62691.22;5094968;28;20197;-57
2023/07/28 10:53:57;;;;;;;2.47;1.80;;;;;;;28.03;nan;62593.13;5094605;28;20249;-57
2023/07/28 10:56:23;;;;;;;3.72;1.95;;;;;;;27.81;nan;62557.47;5094068;28;20181;-57
2023/07/28 10:58:59;;;;;;;2.42;1.90;;;;;;;27.78;nan;62583.50;5093709;28;20161;-58
2023/07/28 11:01:34;;;;;;;3.63;2.00;;;;;;;28.15;nan;62682.53;5093330;28;20661;-58
2023/07/28 11:04:14;;;;;;;3.00;1.80;;;;;;;27.89;nan;62669.66;5093473;28;20531;-58
2023/07/28 11:06:42;;;;;;;2.03;1.70;;;;;;;28.10;nan;62622.78;5093369;28;20217;-56
2023/07/28 11:09:09;;;;;;;1.98;1.73;;;;;;;27.77;nan;62587.59;5093290;28;20170;-55
2023/07/28 11:11:36;;;;;;;2.80;2.10;;;;;;;27.89;nan;62561.91;5081064;28;20193;-58
2023/07/28 11:14:03;;;;;;;3.03;2.03;;;;;;;27.96;nan;62575.19;5073605;28;20794;-59
2023/07/28 11:16:29;;;;;;;4.80;1.90;;;;;;;28.38;nan;62679.97;5073632;28;20254;-57
2023/07/28 11:19:06;;;;;;;2.47;1.80;;;;;;;28.23;nan;62657.53;5073188;28;20182;-58
2023/07/28 11:21:39;;;;;;;3.30;2.10;;;;;;;28.55;nan;62681.03;5074159;28;20649;-60
2023/07/28 11:24:05;;;;;;;2.15;1.70;;;;;;;28.26;nan;62698.34;5073868;28;20257;-58
2023/07/28 11:26:30;;;;;;;2.67;1.80;;;;;;;28.28;nan;62669.09;5073801;28;20178;-57
2023/07/28 11:28:56;;;;;;;2.40;1.90;;;;;;;28.35;nan;62681.78;5073585;28;20189;-56
2023/07/28 11:31:28;;;;;;;3.60;1.95;;;;;;;28.31;nan;62756.66;5073685;28;20173;-56
2023/07/28 11:33:53;;;;;;;2.70;1.92;;;;;;;28.33;nan;62774.72;5074064;28;20181;-57
2023/07/28 11:36:26;;;;;;;2.15;1.80;;;;;;;28.77;nan;62729.91;5073524;28;20195;-57
2023/07/28 11:38:54;;;;;;;2.17;1.60;;;;;;;28.73;nan;62706.91;5073499;28;20234;-57
2023/07/28 11:41:20;;;;;;;2.67;2.00;;;;;;;28.62;nan;62686.41;5089930;28;20283;-59
2023/07/28 11:43:48;;;;;;;1.98;1.60;;;;;;;28.73;nan;62717.44;5075308;28;20178;-56
2023/07/28 11:46:32;;;;;;;2.60;2.08;;;;;;;28.56;nan;62790.00;5076893;28;20208;-57
2023/07/28 11:49:10;;;;;;;3.42;2.00;;;;;;;28.57;nan;62653.81;5094319;28;20181;-62